Thomson Majesty — 9HA2188 — position and weather

sailwx.info

Track history (hours):
 
Tides and Currents Weather Stations Pressure Air Temp Water Temp Dewpoint Dewpoint Depression Visibility Wind Speed Wind Dir Waves Ship Positions

Thomson Majesty

Last reported at 2014-Oct-29 04:23 UTC. Time now 2014-Oct-31 09:41 UTC.
Position N 35°29' E 024°07'.

Length 207 m; draft 6.2 m.

Type: Ship. MMSI: 248124000.

Date/timePositionNaut miles runAvg speedWind from/ knotsBaromVisibWave heightAir tempDewpointWater temp
2014-Oct-29 04:23N 35°29' E 024°07'1312.0
2014-Oct-29 03:20N 35°41' E 024°11'1216.1
2014-Oct-29 02:33N 35°54' E 024°09'1717.0
2014-Oct-29 01:33N 36°10' E 024°05'1817.2
2014-Oct-29 00:32N 36°28' E 024°02'1717.6
2014-Oct-28 23:33N 36°45' E 023°58'1818.1
2014-Oct-28 22:33N 37°03' E 023°53'2018.1
2014-Oct-28 21:27N 37°22' E 023°48'1617.9
2014-Oct-28 20:33N 37°38' E 023°43'1817.8
2014-Oct-28 19:33N 37°55' E 023°37'2 1.8
2014-Oct-28 18:31N 37°56' E 023°38'0 0.0
2014-Oct-28 17:31N 37°56' E 023°38'0 0.0
2014-Oct-28 16:31N 37°56' E 023°38'0 0.0
2014-Oct-28 15:31N 37°56' E 023°38'0 0.0
2014-Oct-28 14:31N 37°56' E 023°38'0 0.0
2014-Oct-28 13:31N 37°56' E 023°38'0 0.0
2014-Oct-28 12:31N 37°56' E 023°38'0 0.0
2014-Oct-28 11:31N 37°56' E 023°38'0 0.0
2014-Oct-28 10:31N 37°56' E 023°38'0 0.0
2014-Oct-28 09:31N 37°56' E 023°38'0 0.0
2014-Oct-28 08:31N 37°56' E 023°38'0 0.0
2014-Oct-28 07:31N 37°56' E 023°38'0 0.0
2014-Oct-28 06:33N 37°56' E 023°38'0 0.0
2014-Oct-28 05:33N 37°56' E 023°38'0 0.0
2014-Oct-28 04:33N 37°56' E 023°38'0 0.0
2014-Oct-28 03:33N 37°56' E 023°38'1 0.6
2014-Oct-28 02:33N 37°56' E 023°37'1313.5
2014-Oct-28 01:34N 37°44' E 023°44'1615.3
2014-Oct-28 00:32N 37°35' E 024°00'1716.8
2014-Oct-27 23:32N 37°29' E 024°20'1717.3
2014-Oct-27 22:33N 37°32' E 024°41'1716.6
2014-Oct-27 21:33N 37°31' E 025°02'1616.5
2014-Oct-27 20:33N 37°32' E 025°23'1616.4
2014-Oct-27 19:33N 37°37' E 025°43'1716.5
2014-Oct-27 18:33N 37°41' E 026°03'5016.7
2014-Oct-27 15:33N 37°52' E 027°05'3 0.3
2014-Oct-27 04:15N 37°52' E 027°08'27 9.7
2014-Oct-27 01:28N 37°52' E 026°34'2311.9
2014-Oct-26 23:33N 37°43' E 026°08'1312.9
2014-Oct-26 22:33N 37°38' E 025°53'1312.7
2014-Oct-26 21:33N 37°35' E 025°37'1312.9
2014-Oct-26 20:33N 37°32' E 025°22'4 4.1
2014-Oct-26 19:30N 37°28' E 025°19'0 0.0
2014-Oct-26 18:30N 37°28' E 025°19'0 0.0
2014-Oct-26 17:33N 37°28' E 025°19'0 0.0
2014-Oct-26 16:30N 37°28' E 025°19'0 0.0
2014-Oct-26 15:30N 37°28' E 025°19'0 0.0
2014-Oct-26 14:33N 37°28' E 025°19'0 0.0
2014-Oct-26 13:30N 37°28' E 025°19'0 0.0
2014-Oct-26 12:30N 37°28' E 025°19'0 0.0
2014-Oct-26 11:30N 37°28' E 025°19'0 0.0
2014-Oct-26 10:30N 37°28' E 025°19'0 0.0
2014-Oct-26 09:30N 37°28' E 025°19'0 0.0
2014-Oct-26 08:30N 37°28' E 025°19'0 0.0
2014-Oct-26 07:30N 37°28' E 025°19'0 0.0
2014-Oct-26 06:30N 37°28' E 025°19'0 0.0
2014-Oct-26 05:33N 37°28' E 025°19'0 0.1
2014-Oct-26 04:33N 37°28' E 025°19'1515.0
2014-Oct-26 03:34N 37°20' E 025°03'1717.4
2014-Oct-26 02:33N 37°11' E 024°45'1313.3
2014-Oct-26 01:33N 37°03' E 024°31'1313.2
2014-Oct-26 00:33N 36°56' E 024°17'1312.7
2014-Oct-25 23:33N 36°49' E 024°04'1212.1
2014-Oct-25 22:33N 36°43' E 023°51'1212.1
2014-Oct-25 21:33N 36°36' E 023°38'  
Track history (hours):
 
Tides and Currents Weather Stations Pressure Air Temp Water Temp Dewpoint Dewpoint Depression Visibility Wind Speed Wind Dir Waves Ship Positions

Thomson Majesty

Last reported at 2014-Oct-29 04:23 UTC. Time now 2014-Oct-31 09:41 UTC.
Position N 35°29' E 024°07'.

Length 207 m; draft 6.2 m.

Type: Ship. MMSI: 248124000.

Date/timePositionNaut miles runAvg speedWind from/ knotsBaromVisibWave heightAir tempDewpointWater temp
2014-Oct-29 04:23N 35°29' E 024°07'1312.0
2014-Oct-29 03:20N 35°41' E 024°11'1216.1
2014-Oct-29 02:33N 35°54' E 024°09'1717.0
2014-Oct-29 01:33N 36°10' E 024°05'1817.2
2014-Oct-29 00:32N 36°28' E 024°02'1717.6
2014-Oct-28 23:33N 36°45' E 023°58'1818.1
2014-Oct-28 22:33N 37°03' E 023°53'2018.1
2014-Oct-28 21:27N 37°22' E 023°48'1617.9
2014-Oct-28 20:33N 37°38' E 023°43'1817.8
2014-Oct-28 19:33N 37°55' E 023°37'2 1.8
2014-Oct-28 18:31N 37°56' E 023°38'0 0.0
2014-Oct-28 17:31N 37°56' E 023°38'0 0.0
2014-Oct-28 16:31N 37°56' E 023°38'0 0.0
2014-Oct-28 15:31N 37°56' E 023°38'0 0.0
2014-Oct-28 14:31N 37°56' E 023°38'0 0.0
2014-Oct-28 13:31N 37°56' E 023°38'0 0.0
2014-Oct-28 12:31N 37°56' E 023°38'0 0.0
2014-Oct-28 11:31N 37°56' E 023°38'0 0.0
2014-Oct-28 10:31N 37°56' E 023°38'0 0.0
2014-Oct-28 09:31N 37°56' E 023°38'0 0.0
2014-Oct-28 08:31N 37°56' E 023°38'0 0.0
2014-Oct-28 07:31N 37°56' E 023°38'0 0.0
2014-Oct-28 06:33N 37°56' E 023°38'0 0.0
2014-Oct-28 05:33N 37°56' E 023°38'0 0.0
2014-Oct-28 04:33N 37°56' E 023°38'0 0.0
2014-Oct-28 03:33N 37°56' E 023°38'1 0.6
2014-Oct-28 02:33N 37°56' E 023°37'1313.5
2014-Oct-28 01:34N 37°44' E 023°44'1615.3
2014-Oct-28 00:32N 37°35' E 024°00'1716.8
2014-Oct-27 23:32N 37°29' E 024°20'1717.3
2014-Oct-27 22:33N 37°32' E 024°41'1716.6
2014-Oct-27 21:33N 37°31' E 025°02'1616.5
2014-Oct-27 20:33N 37°32' E 025°23'1616.4
2014-Oct-27 19:33N 37°37' E 025°43'1716.5
2014-Oct-27 18:33N 37°41' E 026°03'5016.7
2014-Oct-27 15:33N 37°52' E 027°05'3 0.3
2014-Oct-27 04:15N 37°52' E 027°08'27 9.7
2014-Oct-27 01:28N 37°52' E 026°34'2311.9
2014-Oct-26 23:33N 37°43' E 026°08'1312.9
2014-Oct-26 22:33N 37°38' E 025°53'1312.7
2014-Oct-26 21:33N 37°35' E 025°37'1312.9
2014-Oct-26 20:33N 37°32' E 025°22'4 4.1
2014-Oct-26 19:30N 37°28' E 025°19'0 0.0
2014-Oct-26 18:30N 37°28' E 025°19'0 0.0
2014-Oct-26 17:33N 37°28' E 025°19'0 0.0
2014-Oct-26 16:30N 37°28' E 025°19'0 0.0
2014-Oct-26 15:30N 37°28' E 025°19'0 0.0
2014-Oct-26 14:33N 37°28' E 025°19'0 0.0
2014-Oct-26 13:30N 37°28' E 025°19'0 0.0
2014-Oct-26 12:30N 37°28' E 025°19'0 0.0
2014-Oct-26 11:30N 37°28' E 025°19'0 0.0
2014-Oct-26 10:30N 37°28' E 025°19'0 0.0
2014-Oct-26 09:30N 37°28' E 025°19'0 0.0
2014-Oct-26 08:30N 37°28' E 025°19'0 0.0
2014-Oct-26 07:30N 37°28' E 025°19'0 0.0
2014-Oct-26 06:30N 37°28' E 025°19'0 0.0
2014-Oct-26 05:33N 37°28' E 025°19'0 0.1
2014-Oct-26 04:33N 37°28' E 025°19'1515.0
2014-Oct-26 03:34N 37°20' E 025°03'1717.4
2014-Oct-26 02:33N 37°11' E 024°45'1313.3
2014-Oct-26 01:33N 37°03' E 024°31'1313.2
2014-Oct-26 00:33N 36°56' E 024°17'1312.7
2014-Oct-25 23:33N 36°49' E 024°04'1212.1
2014-Oct-25 22:33N 36°43' E 023°51'1212.1
2014-Oct-25 21:33N 36°36' E 023°38'  

Dump ship's entire track history